createdAt,value
2018-02-20T00:00:25.955Z,1014.26
2018-02-20T00:01:06.502Z,1014.26
2018-02-20T00:01:47.052Z,1014.25
2018-02-20T00:02:27.635Z,1014.23
2018-02-20T00:03:08.176Z,1014.19
2018-02-20T00:03:48.732Z,1014.23
2018-02-20T00:04:29.278Z,1014.26
2018-02-20T00:05:09.846Z,1014.23
2018-02-20T00:05:50.402Z,1014.2
2018-02-20T00:06:30.982Z,1014.24
2018-02-20T00:07:11.566Z,1014.2
2018-02-20T00:07:52.123Z,1014.22
2018-02-20T00:08:32.714Z,1014.22
2018-02-20T00:09:13.283Z,1014.19
2018-02-20T00:09:53.826Z,1014.21
2018-02-20T00:10:34.398Z,1014.21
2018-02-20T00:11:14.950Z,1014.17
2018-02-20T00:11:55.497Z,1014.2
2018-02-20T00:12:36.049Z,1014.25
2018-02-20T00:13:16.622Z,1014.19
2018-02-20T00:13:57.159Z,1014.23
2018-02-20T00:14:37.845Z,1014.22
2018-02-20T00:15:18.444Z,1014.16
2018-02-20T00:15:59.020Z,1014.23
2018-02-20T00:16:39.572Z,1014.22
2018-02-20T00:17:20.127Z,1014.22
2018-02-20T00:18:00.711Z,1014.22
2018-02-20T00:18:41.256Z,1014.23
2018-02-20T00:19:21.802Z,1014.21
2018-02-20T00:20:02.366Z,1014.21
2018-02-20T00:20:42.912Z,1014.18
2018-02-20T00:21:23.458Z,1014.22
2018-02-20T00:22:04.018Z,1014.21
2018-02-20T00:22:44.607Z,1014.2
2018-02-20T00:23:25.184Z,1014.23
2018-02-20T00:24:05.733Z,1014.19
2018-02-20T00:24:46.300Z,1014.2
2018-02-20T00:25:26.852Z,1014.17
2018-02-20T00:26:07.411Z,1014.24
2018-02-20T00:26:47.963Z,1014.22
2018-02-20T00:27:28.512Z,1014.24
2018-02-20T00:28:09.057Z,1014.25
2018-02-20T00:28:49.600Z,1014.23
2018-02-20T00:29:30.156Z,1014.24
2018-02-20T00:30:10.714Z,1014.22
2018-02-20T00:30:51.286Z,1014.24
2018-02-20T00:31:31.833Z,1014.25
2018-02-20T00:32:12.375Z,1014.21
2018-02-20T00:32:52.918Z,1014.25
2018-02-20T00:33:33.485Z,1014.28
2018-02-20T00:34:14.054Z,1014.24
2018-02-20T00:34:54.602Z,1014.2
2018-02-20T00:35:35.179Z,1014.22
2018-02-20T00:36:15.716Z,1014.22
2018-02-20T00:36:56.274Z,1014.23
2018-02-20T00:37:36.852Z,1014.22
2018-02-20T00:38:17.402Z,1014.26
2018-02-20T00:38:57.957Z,1014.25
2018-02-20T00:39:38.528Z,1014.24
2018-02-20T00:40:19.086Z,1014.28
2018-02-20T00:40:59.681Z,1014.26
2018-02-20T00:41:40.192Z,1014.25
2018-02-20T00:42:20.731Z,1014.24
2018-02-20T00:43:01.274Z,1014.25
2018-02-20T00:43:41.843Z,1014.24
2018-02-20T00:44:22.410Z,1014.27
2018-02-20T00:45:02.969Z,1014.25
2018-02-20T00:45:43.520Z,1014.24
2018-02-20T00:46:24.125Z,1014.21
2018-02-20T00:47:04.654Z,1014.2
2018-02-20T00:47:45.214Z,1014.21
2018-02-20T00:48:25.759Z,1014.23
2018-02-20T00:49:06.312Z,1014.2
2018-02-20T00:49:46.853Z,1014.19
2018-02-20T00:50:27.412Z,1014.21
2018-02-20T00:51:07.971Z,1014.21
2018-02-20T00:51:48.503Z,1014.19
2018-02-20T00:52:29.092Z,1014.24
2018-02-20T00:53:09.738Z,1014.23
2018-02-20T00:53:50.292Z,1014.22
2018-02-20T00:54:30.832Z,1014.24
2018-02-20T00:55:11.384Z,1014.27
2018-02-20T00:55:51.928Z,1014.22
2018-02-20T00:56:32.466Z,1014.19
2018-02-20T00:57:13.018Z,1014.24
2018-02-20T00:57:53.587Z,1014.25
2018-02-20T00:58:34.116Z,1014.21
2018-02-20T00:59:14.673Z,1014.21
2018-02-20T00:59:55.222Z,1014.22
2018-02-20T01:00:35.775Z,1014.22
2018-02-20T01:01:16.327Z,1014.26
2018-02-20T01:01:56.866Z,1014.19
2018-02-20T01:02:37.404Z,1014.23
2018-02-20T01:03:18.007Z,1014.28
2018-02-20T01:03:58.567Z,1014.23
2018-02-20T01:04:39.117Z,1014.22
2018-02-20T01:05:19.663Z,1014.22
2018-02-20T01:06:00.211Z,1014.27
2018-02-20T01:06:40.756Z,1014.23
2018-02-20T01:07:21.310Z,1014.27
2018-02-20T01:08:01.866Z,1014.24
2018-02-20T01:08:42.428Z,1014.25
2018-02-20T01:09:23.150Z,1014.27
2018-02-20T01:10:03.665Z,1014.24
2018-02-20T01:10:44.236Z,1014.23
2018-02-20T01:11:24.802Z,1014.25
2018-02-20T01:12:05.343Z,1014.18
2018-02-20T01:12:45.920Z,1014.17
2018-02-20T01:13:26.476Z,1014.19
2018-02-20T01:14:07.037Z,1014.23
2018-02-20T01:14:47.589Z,1014.19
2018-02-20T01:15:28.116Z,1014.2
2018-02-20T01:16:08.729Z,1014.14
2018-02-20T01:16:49.279Z,1014.17
2018-02-20T01:17:29.849Z,1014.16
2018-02-20T01:18:10.449Z,1014.15
2018-02-20T01:18:51.089Z,1014.2
2018-02-20T01:19:31.598Z,1014.18
2018-02-20T01:20:12.134Z,1014.18
2018-02-20T01:20:52.724Z,1014.2
2018-02-20T01:21:33.287Z,1014.15
2018-02-20T01:22:13.838Z,1014.19
2018-02-20T01:22:54.383Z,1014.16
2018-02-20T01:23:34.947Z,1014.16
2018-02-20T01:24:15.516Z,1014.2
2018-02-20T01:24:56.096Z,1014.15
2018-02-20T01:25:36.644Z,1014.11
2018-02-20T01:26:17.206Z,1014.16
2018-02-20T01:26:57.744Z,1014.17
2018-02-20T01:27:38.307Z,1014.17
2018-02-20T01:28:18.859Z,1014.17
2018-02-20T01:28:59.462Z,1014.17
2018-02-20T01:29:39.994Z,1014.15
2018-02-20T01:30:20.536Z,1014.15
2018-02-20T01:31:01.117Z,1014.13
2018-02-20T01:31:41.690Z,1014.14
2018-02-20T01:32:22.262Z,1014.16
2018-02-20T01:33:02.833Z,1014.14
2018-02-20T01:33:43.390Z,1014.2
2018-02-20T01:34:23.921Z,1014.19
2018-02-20T01:35:04.472Z,1014.19
2018-02-20T01:35:45.021Z,1014.18
2018-02-20T01:36:25.587Z,1014.21
2018-02-20T01:37:06.159Z,1014.21
2018-02-20T01:37:46.751Z,1014.2
2018-02-20T01:38:27.320Z,1014.2
2018-02-20T01:39:07.860Z,1014.21
2018-02-20T01:39:48.442Z,1014.2
2018-02-20T01:40:28.992Z,1014.2
2018-02-20T01:41:09.553Z,1014.22
2018-02-20T01:41:50.176Z,1014.18
2018-02-20T01:42:30.732Z,1014.22
2018-02-20T01:43:11.274Z,1014.22
2018-02-20T01:43:51.839Z,1014.22
2018-02-20T01:44:32.385Z,1014.2
2018-02-20T01:45:12.976Z,1014.2
2018-02-20T01:45:53.517Z,1014.19
2018-02-20T01:46:34.037Z,1014.22
2018-02-20T01:47:14.594Z,1014.25
2018-02-20T01:47:55.134Z,1014.26
2018-02-20T01:48:35.699Z,1014.26
2018-02-20T01:49:16.241Z,1014.27
2018-02-20T01:49:56.823Z,1014.23
2018-02-20T01:50:37.379Z,1014.24
2018-02-20T01:51:17.927Z,1014.26
2018-02-20T01:51:58.478Z,1014.29
2018-02-20T01:52:39.023Z,1014.26
2018-02-20T01:53:19.571Z,1014.23
2018-02-20T01:54:00.126Z,1014.25
2018-02-20T01:54:40.671Z,1014.22
2018-02-20T01:55:21.241Z,1014.21
2018-02-20T01:56:01.776Z,1014.21
2018-02-20T01:56:42.346Z,1014.19
2018-02-20T01:57:22.904Z,1014.26
2018-02-20T01:58:03.454Z,1014.23
2018-02-20T01:58:43.991Z,1014.23
2018-02-20T01:59:24.549Z,1014.18
2018-02-20T02:00:05.100Z,1014.27
2018-02-20T02:00:45.657Z,1014.24
2018-02-20T02:01:26.191Z,1014.23
2018-02-20T02:02:06.751Z,1014.25
2018-02-20T02:02:47.324Z,1014.27
2018-02-20T02:03:27.874Z,1014.37
2018-02-20T02:04:08.424Z,1014.25
2018-02-20T02:04:49.049Z,1014.27
2018-02-20T02:05:29.602Z,1014.27
2018-02-20T02:06:10.138Z,1014.29
2018-02-20T02:06:50.717Z,1014.22
2018-02-20T02:07:31.250Z,1014.24
2018-02-20T02:08:11.807Z,1014.21
2018-02-20T02:08:52.350Z,1014.24
2018-02-20T02:09:32.896Z,1014.2
2018-02-20T02:10:13.460Z,1014.19
2018-02-20T02:10:53.974Z,1014.19
2018-02-20T02:11:34.521Z,1014.2
2018-02-20T02:12:15.086Z,1014.19
2018-02-20T02:12:55.642Z,1014.19
2018-02-20T02:13:36.202Z,1014.18
2018-02-20T02:14:16.753Z,1014.19
2018-02-20T02:14:57.300Z,1014.16
2018-02-20T02:15:37.855Z,1014.15
2018-02-20T02:16:18.413Z,1014.15
2018-02-20T02:16:58.985Z,1014.19
2018-02-20T02:17:39.583Z,1014.12
2018-02-20T02:18:20.100Z,1014.14
2018-02-20T02:19:00.635Z,1014.2
2018-02-20T02:19:41.185Z,1014.17
2018-02-20T02:20:21.740Z,1014.14
2018-02-20T02:21:02.390Z,1014.16
2018-02-20T02:21:42.892Z,1014.19
2018-02-20T02:22:23.454Z,1014.18
2018-02-20T02:23:04.003Z,1014.18
2018-02-20T02:23:44.567Z,1014.18
2018-02-20T02:24:25.127Z,1014.18
2018-02-20T02:25:05.671Z,1014.2
2018-02-20T02:25:46.228Z,1014.14
2018-02-20T02:26:26.793Z,1014.19
2018-02-20T02:27:07.344Z,1014.11
2018-02-20T02:27:47.897Z,1014.13
2018-02-20T02:28:28.442Z,1014.12
2018-02-20T02:29:09.026Z,1014.15
2018-02-20T02:29:49.527Z,1014.18
2018-02-20T02:30:30.087Z,1014.16
2018-02-20T02:31:10.641Z,1014.11
2018-02-20T02:31:51.195Z,1014.15
2018-02-20T02:32:31.762Z,1014.15
2018-02-20T02:33:12.308Z,1014.12
2018-02-20T02:33:52.875Z,1014.11
2018-02-20T02:34:33.488Z,1014.17
2018-02-20T02:35:13.991Z,1014.14
2018-02-20T02:35:54.523Z,1014.17
2018-02-20T02:36:35.075Z,1014.09
2018-02-20T02:37:15.615Z,1014.13
2018-02-20T02:37:56.161Z,1014.15
2018-02-20T02:38:36.702Z,1014.12
2018-02-20T02:39:17.253Z,1014.11
2018-02-20T02:39:57.863Z,1014.13
2018-02-20T02:40:38.426Z,1014.05
2018-02-20T02:41:18.990Z,1014.04
2018-02-20T02:41:59.528Z,1014.06
2018-02-20T02:42:40.086Z,1014.07
2018-02-20T02:43:20.637Z,1014.06
2018-02-20T02:44:01.192Z,1014.06
2018-02-20T02:44:41.756Z,1014.06
2018-02-20T02:45:22.321Z,1014.07
2018-02-20T02:46:02.876Z,1014.1
2018-02-20T02:46:43.423Z,1014.07
2018-02-20T02:47:23.981Z,1014.09
2018-02-20T02:48:04.531Z,1014.07
2018-02-20T02:48:45.082Z,1014.12
2018-02-20T02:49:25.640Z,1014.1
2018-02-20T02:50:06.218Z,1014.15
2018-02-20T02:50:46.820Z,1014.15
2018-02-20T02:51:27.363Z,1014.14
2018-02-20T02:52:07.909Z,1014.15
2018-02-20T02:52:48.466Z,1014.15
2018-02-20T02:53:29.047Z,1014.17
2018-02-20T02:54:09.596Z,1014.15
2018-02-20T02:54:50.171Z,1014.15
2018-02-20T02:55:30.722Z,1014.17
2018-02-20T02:56:11.273Z,1014.16
2018-02-20T02:56:51.823Z,1014.17
2018-02-20T02:57:32.374Z,1014.13
2018-02-20T02:58:12.922Z,1014.12
2018-02-20T02:58:53.485Z,1014.14
2018-02-20T02:59:34.026Z,1014.1
2018-02-20T03:00:14.587Z,1014.13
2018-02-20T03:00:55.159Z,1014.17
2018-02-20T03:01:35.681Z,1014.13
2018-02-20T03:02:16.230Z,1014.09
2018-02-20T03:02:56.789Z,1014.12
2018-02-20T03:03:37.348Z,1014.15
2018-02-20T03:04:17.892Z,1014.13
2018-02-20T03:04:58.472Z,1014.13
2018-02-20T03:05:39.028Z,1014.18
2018-02-20T03:06:19.570Z,1014.12
2018-02-20T03:07:00.122Z,1014.09
2018-02-20T03:07:40.644Z,1014.13
2018-02-20T03:08:21.188Z,1014.12
2018-02-20T03:09:01.749Z,1014.06
2018-02-20T03:09:42.342Z,1014.07
2018-02-20T03:10:22.911Z,1014.07
2018-02-20T03:11:03.459Z,1014.06
2018-02-20T03:11:44.019Z,1014.06
2018-02-20T03:12:24.576Z,1014.04
2018-02-20T03:13:05.120Z,1014.06
2018-02-20T03:13:45.674Z,1014.05
2018-02-20T03:14:26.218Z,1014.06
2018-02-20T03:15:06.765Z,1014.03
2018-02-20T03:15:47.314Z,1014.05
2018-02-20T03:16:27.886Z,1014.09
2018-02-20T03:17:08.440Z,1014.05
2018-02-20T03:17:49.009Z,1014.05
2018-02-20T03:18:29.613Z,1014.02
2018-02-20T03:19:10.164Z,1014.08
2018-02-20T03:19:50.735Z,1014.02
2018-02-20T03:20:31.276Z,1014.06
2018-02-20T03:21:11.825Z,1014.04
2018-02-20T03:21:52.389Z,1014.03
2018-02-20T03:22:32.929Z,1014.07
2018-02-20T03:23:13.513Z,1014.03
2018-02-20T03:23:54.025Z,1014.02
2018-02-20T03:24:34.600Z,1014.04
2018-02-20T03:25:15.150Z,1014.05
2018-02-20T03:25:55.702Z,1014.05
2018-02-20T03:26:36.250Z,1014.06
2018-02-20T03:27:16.803Z,1014.03
2018-02-20T03:27:57.350Z,1014.07
2018-02-20T03:28:37.908Z,1014.07
2018-02-20T03:29:18.454Z,1014.04
2018-02-20T03:29:59.019Z,1014.05
2018-02-20T03:30:39.561Z,1014.02
2018-02-20T03:31:20.110Z,1014
2018-02-20T03:32:00.699Z,1014.05
2018-02-20T03:32:41.200Z,1014.05
2018-02-20T03:33:21.745Z,1014.03
2018-02-20T03:34:02.299Z,1014.07
2018-02-20T03:34:42.901Z,1014.05
2018-02-20T03:35:23.429Z,1014.04
2018-02-20T03:36:03.995Z,1014.04
2018-02-20T03:36:44.695Z,1014.11
2018-02-20T03:37:25.256Z,1013.99
2018-02-20T03:38:05.798Z,1014.07
2018-02-20T03:38:46.351Z,1014.03
2018-02-20T03:39:26.902Z,1014.08
2018-02-20T03:40:07.450Z,1014.02
2018-02-20T03:40:48.008Z,1014.08
2018-02-20T03:41:28.555Z,1014.07
2018-02-20T03:42:09.156Z,1014.04
2018-02-20T03:42:49.753Z,1014.04
2018-02-20T03:43:30.264Z,1014.03
2018-02-20T03:44:10.826Z,1014.04
2018-02-20T03:44:51.377Z,1014.04
2018-02-20T03:45:31.924Z,1014.02
2018-02-20T03:46:12.469Z,1014.02
2018-02-20T03:46:53.033Z,1014
2018-02-20T03:47:33.582Z,1014.03
2018-02-20T03:48:14.192Z,1013.98
2018-02-20T03:48:54.745Z,1013.98
2018-02-20T03:49:35.502Z,1013.98
2018-02-20T03:50:16.050Z,1013.98
2018-02-20T03:50:56.633Z,1014.03
2018-02-20T03:51:37.161Z,1014.02
2018-02-20T03:52:17.705Z,1014.03
2018-02-20T03:52:58.257Z,1014.01
2018-02-20T03:53:38.808Z,1014.01
2018-02-20T03:54:19.376Z,1014.04
2018-02-20T03:54:59.965Z,1014.03
2018-02-20T03:55:40.492Z,1014.08
2018-02-20T03:56:21.053Z,1014.02
2018-02-20T03:57:01.651Z,1014.02
2018-02-20T03:57:42.203Z,1013.99
2018-02-20T03:58:22.778Z,1013.99
2018-02-20T03:59:03.343Z,1014.02
2018-02-20T03:59:43.937Z,1014.01
2018-02-20T04:00:24.508Z,1014.02
2018-02-20T04:01:05.074Z,1014.05
2018-02-20T04:01:45.600Z,1014.03
2018-02-20T04:02:26.259Z,1014
2018-02-20T04:03:06.868Z,1014.01
2018-02-20T04:03:47.764Z,1013.97
2018-02-20T04:04:28.339Z,1014.01
2018-02-20T04:05:08.891Z,1014.01
2018-02-20T04:05:49.437Z,1014.03
2018-02-20T04:06:30.161Z,1014.01
2018-02-20T04:07:10.718Z,1014.02
2018-02-20T04:07:51.264Z,1014.04
2018-02-20T04:08:31.806Z,1014.03
2018-02-20T04:09:12.368Z,1014.03
2018-02-20T04:09:52.917Z,1014.04
2018-02-20T04:10:33.489Z,1014.01
2018-02-20T04:11:14.057Z,1014.01
2018-02-20T04:11:54.846Z,1014.03
2018-02-20T04:12:35.476Z,1014.04
2018-02-20T04:13:16.151Z,1014.05
2018-02-20T04:13:56.946Z,1014.06
2018-02-20T04:14:37.541Z,1014.02
2018-02-20T04:15:18.073Z,1014.04
2018-02-20T04:15:58.624Z,1014.07
2018-02-20T04:16:39.242Z,1014.01
2018-02-20T04:17:19.862Z,1014.03
2018-02-20T04:18:00.395Z,1014.05
2018-02-20T04:18:40.934Z,1014.04
2018-02-20T04:19:21.517Z,1014.03
2018-02-20T04:20:02.105Z,1014.04
2018-02-20T04:20:42.682Z,1014.05
2018-02-20T04:21:23.210Z,1014.03
2018-02-20T04:22:03.755Z,1014.03
2018-02-20T04:22:44.321Z,1014.01
2018-02-20T04:23:24.855Z,1014.03
2018-02-20T04:24:05.407Z,1014.01
2018-02-20T04:24:45.974Z,1014.04
2018-02-20T04:25:26.527Z,1014.07
2018-02-20T04:26:07.081Z,1014.04
2018-02-20T04:26:47.630Z,1014.03
2018-02-20T04:27:28.199Z,1014.05
2018-02-20T04:28:08.750Z,1014.05
2018-02-20T04:28:49.333Z,1014.03
2018-02-20T04:29:29.886Z,1014.02
2018-02-20T04:30:10.435Z,1014.08
2018-02-20T04:30:51.023Z,1014.03
2018-02-20T04:31:31.627Z,1014.06
2018-02-20T04:32:12.192Z,1014.07
2018-02-20T04:32:52.774Z,1014.07
2018-02-20T04:33:33.402Z,1014.05
2018-02-20T04:34:14.081Z,1014.04
2018-02-20T04:34:54.626Z,1014.04
2018-02-20T04:35:35.176Z,1014.03
2018-02-20T04:36:15.729Z,1014
2018-02-20T04:36:56.265Z,1014.06
2018-02-20T04:37:36.809Z,1013.99
2018-02-20T04:38:17.362Z,1013.97
2018-02-20T04:38:57.947Z,1014.01
2018-02-20T04:39:38.514Z,1013.97
2018-02-20T04:40:19.714Z,1014.02
2018-02-20T04:41:00.703Z,1013.99
2018-02-20T04:41:42.006Z,1013.94
2018-02-20T04:42:22.969Z,1014.01
2018-02-20T04:43:03.847Z,1014
2018-02-20T04:43:44.555Z,1013.98
2018-02-20T04:44:25.108Z,1013.99
2018-02-20T04:45:05.657Z,1013.98
2018-02-20T04:45:47.086Z,1014.03
2018-02-20T04:46:26.776Z,1014
2018-02-20T04:47:07.331Z,1014.05
2018-02-20T04:47:47.893Z,1014.03
2018-02-20T04:48:28.424Z,1014.03
2018-02-20T04:49:08.978Z,1014.03
2018-02-20T04:49:49.592Z,1014.04
2018-02-20T04:50:30.069Z,1014.05
2018-02-20T04:51:10.598Z,1014.03
2018-02-20T04:51:51.155Z,1014.11
2018-02-20T04:52:31.749Z,1014.1
2018-02-20T04:53:12.315Z,1014.09
2018-02-20T04:53:52.927Z,1014.08
2018-02-20T04:54:33.474Z,1014.07
2018-02-20T04:55:14.067Z,1014.07
2018-02-20T04:55:54.627Z,1014.09
2018-02-20T04:56:35.194Z,1014.09
2018-02-20T04:57:15.827Z,1014.08
2018-02-20T04:57:56.384Z,1014.06
2018-02-20T04:58:37.005Z,1014.07
2018-02-20T04:59:17.549Z,1014.07
2018-02-20T04:59:58.109Z,1014.07
2018-02-20T05:00:38.660Z,1014.09
2018-02-20T05:01:19.251Z,1014.09
2018-02-20T05:01:59.823Z,1014.08
2018-02-20T05:02:40.418Z,1014.11
2018-02-20T05:03:20.939Z,1014.09
2018-02-20T05:04:01.496Z,1014.09
2018-02-20T05:04:42.100Z,1014.09
2018-02-20T05:05:22.642Z,1014.07
2018-02-20T05:06:03.205Z,1014.06
2018-02-20T05:06:43.759Z,1014.06
2018-02-20T05:07:24.306Z,1014.07
2018-02-20T05:08:04.876Z,1014.1
2018-02-20T05:08:45.435Z,1014.11
2018-02-20T05:09:26.004Z,1014.13
2018-02-20T05:10:06.557Z,1014.16
2018-02-20T05:10:47.097Z,1014.13
2018-02-20T05:11:27.650Z,1014.14
2018-02-20T05:12:08.201Z,1014.1
2018-02-20T05:12:48.789Z,1014.12
2018-02-20T05:13:29.329Z,1014.17
2018-02-20T05:14:09.874Z,1014.16
2018-02-20T05:14:50.432Z,1014.13
2018-02-20T05:15:30.975Z,1014.1
2018-02-20T05:16:11.568Z,1014.13
2018-02-20T05:16:52.116Z,1014.14
2018-02-20T05:17:32.688Z,1014.16
2018-02-20T05:18:13.233Z,1014.12
2018-02-20T05:18:53.808Z,1014.14
2018-02-20T05:19:34.369Z,1014.18
2018-02-20T05:20:14.898Z,1014.14
2018-02-20T05:20:55.457Z,1014.16
2018-02-20T05:21:36.006Z,1014.16
2018-02-20T05:22:16.564Z,1014.15
2018-02-20T05:22:57.125Z,1014.22
2018-02-20T05:23:37.664Z,1014.19
2018-02-20T05:24:18.220Z,1014.15
2018-02-20T05:24:58.815Z,1014.19
2018-02-20T05:25:39.335Z,1014.2
2018-02-20T05:26:19.905Z,1014.18
2018-02-20T05:27:00.450Z,1014.18
2018-02-20T05:27:41.008Z,1014.2
2018-02-20T05:28:21.573Z,1014.19
2018-02-20T05:29:02.108Z,1014.17
2018-02-20T05:29:42.659Z,1014.23
2018-02-20T05:30:23.207Z,1014.22
2018-02-20T05:31:03.779Z,1014.28
2018-02-20T05:31:44.320Z,1014.27
2018-02-20T05:32:24.871Z,1014.25
2018-02-20T05:33:05.415Z,1014.22
2018-02-20T05:33:45.965Z,1014.28
2018-02-20T05:34:26.513Z,1014.24
2018-02-20T05:35:07.119Z,1014.29
2018-02-20T05:35:47.808Z,1014.23
2018-02-20T05:36:28.350Z,1014.27
2018-02-20T05:37:08.897Z,1014.29
2018-02-20T05:37:49.472Z,1014.27
2018-02-20T05:38:30.014Z,1014.29
2018-02-20T05:39:10.598Z,1014.29
2018-02-20T05:39:51.195Z,1014.28
2018-02-20T05:40:31.748Z,1014.3
2018-02-20T05:41:12.309Z,1014.32
2018-02-20T05:41:52.910Z,1014.28
2018-02-20T05:42:33.475Z,1014.27
2018-02-20T05:43:14.050Z,1014.25
2018-02-20T05:43:54.676Z,1014.3
2018-02-20T05:44:35.228Z,1014.27
2018-02-20T05:45:15.796Z,1014.3
2018-02-20T05:45:56.349Z,1014.31
2018-02-20T05:46:36.911Z,1014.28
2018-02-20T05:47:17.468Z,1014.28
2018-02-20T05:47:58.016Z,1014.28
2018-02-20T05:48:38.565Z,1014.28
2018-02-20T05:49:19.119Z,1014.29
2018-02-20T05:49:59.672Z,1014.27
2018-02-20T05:50:40.217Z,1014.3
2018-02-20T05:51:20.781Z,1014.29
2018-02-20T05:52:01.320Z,1014.32
2018-02-20T05:52:41.887Z,1014.31
2018-02-20T05:53:22.448Z,1014.34
2018-02-20T05:54:02.999Z,1014.29
2018-02-20T05:54:43.539Z,1014.26
2018-02-20T05:55:24.086Z,1014.25
2018-02-20T05:56:04.627Z,1014.26
2018-02-20T05:56:45.182Z,1014.29
2018-02-20T05:57:25.756Z,1014.3
2018-02-20T05:58:06.328Z,1014.3
2018-02-20T05:58:47.025Z,1014.26
2018-02-20T05:59:27.593Z,1014.29
2018-02-20T06:00:08.141Z,1014.3
2018-02-20T06:00:48.694Z,1014.28
2018-02-20T06:01:29.252Z,1014.31
2018-02-20T06:02:09.906Z,1014.27
2018-02-20T06:02:50.463Z,1014.27
2018-02-20T06:03:31.030Z,1014.29
2018-02-20T06:04:11.609Z,1014.27
2018-02-20T06:04:52.151Z,1014.31
2018-02-20T06:05:32.761Z,1014.27
2018-02-20T06:06:13.331Z,1014.33
2018-02-20T06:06:53.886Z,1014.33
2018-02-20T06:07:34.418Z,1014.31
2018-02-20T06:08:14.984Z,1014.29
2018-02-20T06:08:55.550Z,1014.34
2018-02-20T06:09:36.113Z,1014.29
2018-02-20T06:10:16.656Z,1014.31
2018-02-20T06:10:57.203Z,1014.31
2018-02-20T06:11:37.789Z,1014.33
2018-02-20T06:12:18.314Z,1014.31
2018-02-20T06:12:58.878Z,1014.35
2018-02-20T06:13:39.438Z,1014.34
2018-02-20T06:14:19.991Z,1014.37
2018-02-20T06:15:00.554Z,1014.4
2018-02-20T06:15:41.121Z,1014.38
2018-02-20T06:16:21.668Z,1014.42
2018-02-20T06:17:02.235Z,1014.37
2018-02-20T06:17:42.794Z,1014.4
2018-02-20T06:18:23.326Z,1014.37
2018-02-20T06:19:03.889Z,1014.38
2018-02-20T06:19:44.488Z,1014.37
2018-02-20T06:20:25.024Z,1014.41
2018-02-20T06:21:10.469Z,1014.37
2018-02-20T06:21:51.027Z,1014.38
2018-02-20T06:22:31.563Z,1014.39
2018-02-20T06:23:12.108Z,1014.41
2018-02-20T06:23:52.669Z,1014.34
2018-02-20T06:24:33.248Z,1014.4
2018-02-20T06:25:13.801Z,1014.35
2018-02-20T06:25:54.353Z,1014.36
2018-02-20T06:26:34.922Z,1014.34
2018-02-20T06:27:15.474Z,1014.35
2018-02-20T06:27:56.026Z,1014.35
2018-02-20T06:28:36.601Z,1014.34
2018-02-20T06:29:17.194Z,1014.35
2018-02-20T06:29:57.746Z,1014.3
2018-02-20T06:30:38.295Z,1014.32
2018-02-20T06:31:18.845Z,1014.32
2018-02-20T06:31:59.436Z,1014.37
2018-02-20T06:32:40.002Z,1014.33
2018-02-20T06:33:20.558Z,1014.34
2018-02-20T06:34:01.092Z,1014.35
2018-02-20T06:34:41.656Z,1014.35
2018-02-20T06:35:22.212Z,1014.31
2018-02-20T06:36:02.767Z,1014.35
2018-02-20T06:36:43.315Z,1014.33
2018-02-20T06:37:23.898Z,1014.31
2018-02-20T06:38:04.473Z,1014.36
2018-02-20T06:38:44.997Z,1014.38
2018-02-20T06:39:25.701Z,1014.37
2018-02-20T06:40:06.275Z,1014.38
2018-02-20T06:40:46.834Z,1014.32
2018-02-20T06:41:27.399Z,1014.37
2018-02-20T06:42:07.960Z,1014.37
2018-02-20T06:42:48.520Z,1014.38
2018-02-20T06:43:29.094Z,1014.35
2018-02-20T06:44:09.652Z,1014.41
2018-02-20T06:44:50.209Z,1014.4
2018-02-20T06:45:30.756Z,1014.39
2018-02-20T06:46:11.295Z,1014.4
2018-02-20T06:46:51.840Z,1014.39
2018-02-20T06:47:32.406Z,1014.46
2018-02-20T06:48:12.957Z,1014.39
2018-02-20T06:48:53.502Z,1014.42
2018-02-20T06:49:34.045Z,1014.4
2018-02-20T06:50:14.607Z,1014.43
2018-02-20T06:50:55.155Z,1014.47
2018-02-20T06:51:35.700Z,1014.45
2018-02-20T06:52:16.257Z,1014.42
2018-02-20T06:52:56.807Z,1014.45
2018-02-20T06:53:37.370Z,1014.46
2018-02-20T06:54:17.958Z,1014.52
2018-02-20T06:54:58.535Z,1014.51
2018-02-20T06:55:39.096Z,1014.52
2018-02-20T06:56:19.653Z,1014.5
2018-02-20T06:57:00.202Z,1014.47
2018-02-20T06:57:40.774Z,1014.49
2018-02-20T06:58:21.354Z,1014.49
2018-02-20T06:59:01.887Z,1014.53
2018-02-20T06:59:42.451Z,1014.54
2018-02-20T07:00:23.017Z,1014.55
2018-02-20T07:01:03.576Z,1014.45
2018-02-20T07:01:44.129Z,1014.55
2018-02-20T07:02:24.687Z,1014.53
2018-02-20T07:03:05.246Z,1014.52
2018-02-20T07:03:45.877Z,1014.52
2018-02-20T07:04:26.355Z,1014.55
2018-02-20T07:05:06.904Z,1014.54
2018-02-20T07:05:47.507Z,1014.55
2018-02-20T07:06:28.071Z,1014.53
2018-02-20T07:07:08.615Z,1014.53
2018-02-20T07:07:49.210Z,1014.53
2018-02-20T07:08:29.780Z,1014.56
2018-02-20T07:09:10.372Z,1014.54
2018-02-20T07:09:50.917Z,1014.61
2018-02-20T07:10:31.472Z,1014.6
2018-02-20T07:11:12.037Z,1014.57
2018-02-20T07:11:52.597Z,1014.55
2018-02-20T07:12:33.147Z,1014.6
2018-02-20T07:13:13.731Z,1014.61
2018-02-20T07:13:54.283Z,1014.59
2018-02-20T07:14:34.852Z,1014.58
2018-02-20T07:15:15.398Z,1014.6
2018-02-20T07:15:55.958Z,1014.65
2018-02-20T07:16:36.513Z,1014.67
2018-02-20T07:17:17.074Z,1014.65
2018-02-20T07:17:57.655Z,1014.63
2018-02-20T07:18:38.211Z,1014.66
2018-02-20T07:19:18.788Z,1014.67
2018-02-20T07:19:59.362Z,1014.7
2018-02-20T07:20:39.931Z,1014.73
2018-02-20T07:21:20.517Z,1014.68
2018-02-20T07:22:01.077Z,1014.71
2018-02-20T07:22:41.629Z,1014.73
2018-02-20T07:23:22.202Z,1014.76
2018-02-20T07:24:02.752Z,1014.78
2018-02-20T07:24:43.334Z,1014.74
2018-02-20T07:25:23.923Z,1014.72
2018-02-20T07:26:04.516Z,1014.73
2018-02-20T07:26:45.166Z,1014.71
2018-02-20T07:27:25.714Z,1014.71
2018-02-20T07:28:06.292Z,1014.75
2018-02-20T07:28:46.876Z,1014.71
2018-02-20T07:29:27.410Z,1014.76
2018-02-20T07:30:08.020Z,1014.75
2018-02-20T07:30:48.626Z,1014.74
2018-02-20T07:31:29.261Z,1014.75
2018-02-20T07:32:09.799Z,1014.77
2018-02-20T07:32:50.559Z,1014.77
2018-02-20T07:33:31.128Z,1014.83
2018-02-20T07:34:11.670Z,1014.77
2018-02-20T07:34:52.223Z,1014.8
2018-02-20T07:35:32.774Z,1014.8
2018-02-20T07:36:13.321Z,1014.79
2018-02-20T07:36:53.872Z,1014.79
2018-02-20T07:37:34.435Z,1014.73
2018-02-20T07:38:14.979Z,1014.8
2018-02-20T07:38:55.524Z,1014.79
2018-02-20T07:39:36.075Z,1014.8
2018-02-20T07:40:16.624Z,1014.83
2018-02-20T07:40:57.905Z,1014.76
2018-02-20T07:41:38.566Z,1014.78
2018-02-20T07:42:19.144Z,1014.83
2018-02-20T07:43:00.011Z,1014.79
2018-02-20T07:43:40.586Z,1014.82
2018-02-20T07:44:21.165Z,1014.83
2018-02-20T07:45:01.734Z,1014.81
2018-02-20T07:45:42.277Z,1014.82
2018-02-20T07:46:22.883Z,1014.82
2018-02-20T07:47:03.480Z,1014.8
2018-02-20T07:47:44.036Z,1014.83
2018-02-20T07:48:24.563Z,1014.8
2018-02-20T07:49:05.115Z,1014.81
2018-02-20T07:49:45.653Z,1014.83
2018-02-20T07:50:26.228Z,1014.78
2018-02-20T07:51:06.786Z,1014.75
2018-02-20T07:51:47.318Z,1014.79
2018-02-20T07:52:27.889Z,1014.77
2018-02-20T07:53:08.429Z,1014.8
2018-02-20T07:53:48.989Z,1014.84
2018-02-20T07:54:29.816Z,1014.83
2018-02-20T07:55:11.112Z,1014.8
2018-02-20T07:55:52.303Z,1014.83
2018-02-20T07:56:33.248Z,1014.88
2018-02-20T07:57:13.807Z,1014.86
2018-02-20T07:57:54.529Z,1014.88
2018-02-20T07:58:35.644Z,1014.82
2018-02-20T07:59:16.613Z,1014.85
2018-02-20T07:59:57.824Z,1014.89
2018-02-20T08:00:38.656Z,1014.83
2018-02-20T08:01:19.291Z,1014.82
2018-02-20T08:01:59.845Z,1014.82
2018-02-20T08:02:40.453Z,1014.82
2018-02-20T08:03:21.507Z,1014.87
2018-02-20T08:04:02.709Z,1014.86
2018-02-20T08:04:44.073Z,1014.83
2018-02-20T08:05:25.004Z,1014.85
2018-02-20T08:06:05.548Z,1014.83
2018-02-20T08:06:46.104Z,1014.83
2018-02-20T08:07:26.643Z,1014.84
2018-02-20T08:08:07.216Z,1014.84
2018-02-20T08:08:47.752Z,1014.84
2018-02-20T08:09:28.498Z,1014.82
2018-02-20T08:10:09.517Z,1014.85
2018-02-20T08:10:50.636Z,1014.85
2018-02-20T08:11:31.387Z,1014.81
2018-02-20T08:12:11.984Z,1014.87
2018-02-20T08:12:52.686Z,1014.81